createdAt,value
2022-10-24T00:01:17.448Z,15.90
2022-10-24T00:03:44.777Z,16.10
2022-10-24T00:06:12.782Z,15.80
2022-10-24T00:08:41.556Z,15.70
2022-10-24T00:11:18.096Z,15.70
2022-10-24T00:13:45.558Z,15.70
2022-10-24T00:16:13.159Z,15.70
2022-10-24T00:18:40.680Z,15.80
2022-10-24T00:21:08.443Z,16.20
2022-10-24T00:23:36.397Z,16.30
2022-10-24T00:26:04.636Z,16.00
2022-10-24T00:28:34.244Z,15.80
2022-10-24T00:31:01.331Z,16.00
2022-10-24T00:33:28.432Z,15.90
2022-10-24T00:35:55.445Z,15.80
2022-10-24T00:38:22.510Z,15.90
2022-10-24T00:40:49.573Z,15.80
2022-10-24T00:43:23.688Z,16.00
2022-10-24T00:45:55.745Z,16.00
2022-10-24T00:48:46.869Z,15.90
2022-10-24T00:51:32.897Z,15.70
2022-10-24T00:54:04.442Z,15.60
2022-10-24T00:56:35.641Z,15.40
2022-10-24T00:59:05.752Z,15.40
2022-10-24T01:01:34.175Z,15.40
2022-10-24T01:04:01.878Z,15.40
2022-10-24T01:07:13.733Z,15.40
2022-10-24T01:10:14.772Z,15.40
2022-10-24T01:13:22.280Z,15.40
2022-10-24T01:16:29.792Z,15.30
2022-10-24T01:19:36.032Z,15.30
2022-10-24T01:22:10.287Z,15.30
2022-10-24T01:25:06.513Z,15.30
2022-10-24T01:28:23.911Z,15.50
2022-10-24T01:30:57.156Z,15.70
2022-10-24T01:33:38.668Z,15.60
2022-10-24T01:36:15.434Z,15.50
2022-10-24T01:38:51.792Z,15.50
2022-10-24T01:41:23.301Z,15.60
2022-10-24T01:44:05.505Z,15.70
2022-10-24T01:46:37.670Z,15.70
2022-10-24T01:49:16.208Z,15.70
2022-10-24T01:51:45.880Z,15.70
2022-10-24T01:54:14.027Z,15.60
2022-10-24T01:56:41.057Z,15.40
2022-10-24T01:59:29.702Z,15.50
2022-10-24T02:02:17.925Z,15.60
2022-10-24T02:05:10.030Z,15.60
2022-10-24T02:07:39.305Z,15.60
2022-10-24T02:10:27.678Z,15.50
2022-10-24T02:13:00.074Z,15.60
2022-10-24T02:15:30.309Z,15.60
2022-10-24T02:17:58.220Z,15.50
2022-10-24T02:20:37.461Z,15.40
2022-10-24T02:23:17.262Z,15.50
2022-10-24T02:25:49.101Z,15.60
2022-10-24T02:28:22.345Z,15.50
2022-10-24T02:31:08.754Z,15.40
2022-10-24T02:33:39.804Z,15.50
2022-10-24T02:36:10.723Z,15.40
2022-10-24T02:38:41.531Z,15.20
2022-10-24T02:41:11.517Z,15.30
2022-10-24T02:43:40.890Z,15.30
2022-10-24T02:46:09.137Z,15.10
2022-10-24T02:48:42.899Z,15.10
2022-10-24T02:51:10.265Z,15.10
2022-10-24T02:53:37.621Z,15.00
2022-10-24T02:56:04.917Z,15.10
2022-10-24T02:58:32.080Z,15.10
2022-10-24T03:00:59.224Z,15.10
2022-10-24T03:03:26.598Z,15.20
2022-10-24T03:05:53.745Z,15.40
2022-10-24T03:08:20.727Z,15.50
2022-10-24T03:10:47.783Z,15.40
2022-10-24T03:13:14.827Z,15.50
2022-10-24T03:15:41.937Z,15.50
2022-10-24T03:18:09.013Z,15.30
2022-10-24T03:20:36.247Z,15.40
2022-10-24T03:23:03.546Z,15.30
2022-10-24T03:25:30.637Z,15.30
2022-10-24T03:27:57.713Z,15.10
2022-10-24T03:30:24.804Z,15.10
2022-10-24T03:32:51.821Z,15.20
2022-10-24T03:35:18.970Z,15.10
2022-10-24T03:37:46.007Z,15.00
2022-10-24T03:40:13.167Z,15.00
2022-10-24T03:42:40.257Z,14.90
2022-10-24T03:45:08.022Z,14.80
2022-10-24T03:47:35.098Z,14.80
2022-10-24T03:50:02.176Z,14.70
2022-10-24T03:52:29.316Z,14.70
2022-10-24T03:54:56.329Z,14.70
2022-10-24T03:57:23.318Z,14.80
2022-10-24T03:59:50.351Z,14.80
2022-10-24T04:02:17.593Z,14.80
2022-10-24T04:04:44.623Z,14.70
2022-10-24T04:07:11.647Z,14.90
2022-10-24T04:09:38.704Z,14.90
2022-10-24T04:12:05.897Z,14.90
2022-10-24T04:14:33.174Z,15.20
2022-10-24T04:17:00.217Z,15.30
2022-10-24T04:19:27.336Z,15.30
2022-10-24T04:21:54.636Z,15.30
2022-10-24T04:24:21.724Z,15.00
2022-10-24T04:26:48.796Z,15.10
2022-10-24T04:29:15.842Z,15.10
2022-10-24T04:31:51.734Z,15.00
2022-10-24T04:34:18.775Z,15.10
2022-10-24T04:36:45.927Z,14.90
2022-10-24T04:39:13.199Z,14.80
2022-10-24T04:41:40.216Z,14.70
2022-10-24T04:44:07.286Z,14.60
2022-10-24T04:46:34.518Z,14.70
2022-10-24T04:49:01.559Z,14.60
2022-10-24T04:51:28.616Z,14.40
2022-10-24T04:53:55.682Z,14.40
2022-10-24T04:56:22.932Z,14.30
2022-10-24T04:58:49.972Z,14.30
2022-10-24T05:01:17.426Z,14.30
2022-10-24T05:03:44.549Z,14.30
2022-10-24T05:06:11.612Z,14.30
2022-10-24T05:08:38.810Z,14.40
2022-10-24T05:11:05.906Z,14.30
2022-10-24T05:13:35.929Z,14.40
2022-10-24T05:16:04.660Z,14.40
2022-10-24T05:18:32.522Z,14.40
2022-10-24T05:21:00.786Z,14.50
2022-10-24T05:23:28.060Z,14.50
2022-10-24T05:25:55.152Z,14.50
2022-10-24T05:28:22.273Z,14.50
2022-10-24T05:30:49.510Z,14.40
2022-10-24T05:33:16.567Z,14.40
2022-10-24T05:35:43.671Z,14.50
2022-10-24T05:38:10.930Z,14.50
2022-10-24T05:40:37.971Z,14.50
2022-10-24T05:43:05.065Z,14.60
2022-10-24T05:45:32.157Z,14.60
2022-10-24T05:47:59.428Z,14.70
2022-10-24T05:50:27.172Z,14.60
2022-10-24T05:52:54.365Z,14.60
2022-10-24T05:55:21.420Z,14.60
2022-10-24T05:57:48.527Z,14.70
2022-10-24T06:00:17.460Z,14.70
2022-10-24T06:05:17.248Z,14.60
2022-10-24T06:07:44.686Z,14.50
2022-10-24T06:10:12.689Z,14.50
2022-10-24T06:12:39.929Z,14.60
2022-10-24T06:15:08.916Z,14.40
2022-10-24T06:17:36.178Z,14.40
2022-10-24T06:20:04.382Z,14.30
2022-10-24T06:22:31.657Z,14.30
2022-10-24T06:24:58.680Z,14.30
2022-10-24T06:27:25.831Z,14.30
2022-10-24T06:29:52.937Z,14.30
2022-10-24T06:32:19.974Z,14.30
2022-10-24T06:34:46.944Z,14.30
2022-10-24T06:37:13.977Z,14.30
2022-10-24T06:39:41.013Z,14.30
2022-10-24T06:42:08.384Z,14.40
2022-10-24T06:44:36.802Z,14.40
2022-10-24T06:47:03.934Z,14.50
2022-10-24T06:49:30.970Z,14.60
2022-10-24T06:51:58.177Z,14.70
2022-10-24T06:54:27.765Z,14.60
2022-10-24T06:56:57.299Z,14.60
2022-10-24T06:59:24.465Z,14.60
2022-10-24T07:01:51.790Z,14.60
2022-10-24T07:04:18.970Z,14.50
2022-10-24T07:06:46.151Z,14.50
2022-10-24T07:09:15.420Z,14.50
2022-10-24T07:11:43.307Z,14.60
2022-10-24T07:14:11.313Z,14.60
2022-10-24T07:16:38.904Z,14.60
2022-10-24T07:19:06.664Z,14.60
2022-10-24T07:21:34.429Z,14.60
2022-10-24T07:24:01.599Z,14.60
2022-10-24T07:26:29.817Z,14.50
2022-10-24T07:31:34.943Z,14.50
2022-10-24T07:34:04.148Z,14.50
2022-10-24T07:36:31.429Z,14.50
2022-10-24T07:38:59.486Z,14.60
2022-10-24T07:41:29.165Z,14.60
2022-10-24T07:43:58.048Z,14.50
2022-10-24T07:46:25.581Z,14.50
2022-10-24T07:48:53.589Z,14.50
2022-10-24T07:51:22.080Z,14.40
2022-10-24T07:53:49.312Z,14.40
2022-10-24T07:56:18.029Z,14.40
2022-10-24T07:58:46.713Z,14.40
2022-10-24T08:01:23.031Z,14.40
2022-10-24T08:03:50.419Z,14.40
2022-10-24T08:06:26.894Z,14.30
2022-10-24T08:08:55.879Z,14.30
2022-10-24T08:11:27.584Z,14.30
2022-10-24T08:13:57.238Z,14.30
2022-10-24T08:16:25.729Z,14.30
2022-10-24T08:18:54.280Z,14.40
2022-10-24T08:21:22.813Z,14.40
2022-10-24T08:23:52.241Z,14.40
2022-10-24T08:26:22.424Z,14.40
2022-10-24T08:28:50.438Z,14.40
2022-10-24T08:31:20.332Z,14.30
2022-10-24T08:33:48.679Z,14.30
2022-10-24T08:36:28.839Z,14.30
2022-10-24T08:38:56.584Z,14.30
2022-10-24T08:41:50.795Z,14.30
2022-10-24T08:44:30.101Z,14.20
2022-10-24T08:47:34.194Z,14.20
2022-10-24T08:50:34.675Z,14.30
2022-10-24T08:53:09.830Z,14.30
2022-10-24T08:55:49.793Z,14.30
2022-10-24T08:58:26.286Z,14.50
2022-10-24T09:00:56.595Z,14.50
2022-10-24T09:03:58.747Z,14.50
2022-10-24T09:06:29.061Z,14.40
2022-10-24T09:09:18.834Z,14.40
2022-10-24T09:11:55.615Z,14.30
2022-10-24T09:14:34.513Z,14.40
2022-10-24T09:17:17.029Z,14.70
2022-10-24T09:19:55.425Z,14.70
2022-10-24T09:22:25.477Z,14.60
2022-10-24T09:24:58.676Z,14.50
2022-10-24T09:27:29.850Z,14.40
2022-10-24T09:29:58.297Z,14.40
2022-10-24T09:32:30.762Z,14.30
2022-10-24T09:35:09.468Z,14.20
2022-10-24T09:38:16.723Z,14.20
2022-10-24T09:40:53.920Z,14.10
2022-10-24T09:43:55.049Z,14.20
2022-10-24T09:46:35.149Z,14.20
2022-10-24T09:49:19.967Z,14.10
2022-10-24T09:52:05.558Z,14.50
2022-10-24T09:54:34.481Z,14.30
2022-10-24T09:57:18.077Z,14.20
2022-10-24T09:59:48.038Z,14.30
2022-10-24T10:02:35.141Z,14.30
2022-10-24T10:05:20.678Z,14.20
2022-10-24T10:07:50.004Z,14.20
2022-10-24T10:10:33.103Z,14.20
2022-10-24T10:13:23.408Z,14.10
2022-10-24T10:16:04.118Z,14.00
2022-10-24T10:18:43.932Z,14.00
2022-10-24T10:21:22.158Z,14.10
2022-10-24T10:24:02.047Z,14.00
2022-10-24T10:26:45.667Z,13.90
2022-10-24T10:29:24.011Z,13.90
2022-10-24T10:32:07.974Z,13.80
2022-10-24T10:34:43.261Z,13.80
2022-10-24T10:37:44.017Z,13.80
2022-10-24T10:40:43.448Z,13.90
2022-10-24T10:43:51.969Z,13.90
2022-10-24T10:46:37.306Z,13.90
2022-10-24T10:49:47.025Z,14.00
2022-10-24T10:52:25.712Z,14.30
2022-10-24T10:55:24.572Z,14.40
2022-10-24T10:58:18.468Z,14.30
2022-10-24T11:01:22.488Z,14.40
2022-10-24T11:04:27.777Z,14.50
2022-10-24T11:07:28.379Z,14.00
2022-10-24T11:10:01.268Z,14.00
2022-10-24T11:12:42.768Z,14.10
2022-10-24T11:15:31.892Z,14.10
2022-10-24T11:18:13.046Z,14.20
2022-10-24T11:21:10.303Z,14.20
2022-10-24T11:24:08.691Z,14.20
2022-10-24T11:26:48.258Z,14.20
2022-10-24T11:29:53.430Z,14.30
2022-10-24T11:32:49.259Z,14.30
2022-10-24T11:35:30.985Z,14.40
2022-10-24T11:38:08.438Z,14.40
2022-10-24T11:40:36.599Z,14.40
2022-10-24T11:43:36.585Z,14.30
2022-10-24T11:46:34.512Z,14.40
2022-10-24T11:49:29.607Z,14.30
2022-10-24T11:52:04.840Z,14.30
2022-10-24T11:54:41.552Z,14.30
2022-10-24T11:57:22.001Z,14.30
2022-10-24T11:59:53.382Z,14.40
2022-10-24T12:02:54.153Z,14.50
2022-10-24T12:06:06.375Z,14.50
2022-10-24T12:08:59.510Z,14.50
2022-10-24T12:11:46.725Z,14.50
2022-10-24T12:14:57.774Z,14.40
2022-10-24T12:17:45.425Z,14.40
2022-10-24T12:20:18.147Z,14.40
2022-10-24T12:22:45.769Z,14.40
2022-10-24T12:25:33.522Z,14.50
2022-10-24T12:28:03.868Z,14.40
2022-10-24T12:30:34.294Z,14.50
2022-10-24T12:33:24.480Z,14.50
2022-10-24T12:35:56.524Z,14.50
2022-10-24T12:39:16.079Z,14.50
2022-10-24T12:41:43.711Z,14.60
2022-10-24T12:44:51.084Z,14.60
2022-10-24T12:47:47.200Z,14.70
2022-10-24T12:50:52.347Z,14.70
2022-10-24T12:53:31.920Z,14.70
2022-10-24T12:56:11.884Z,14.70
2022-10-24T12:58:42.906Z,14.80
2022-10-24T13:01:44.463Z,14.80
2022-10-24T13:04:55.054Z,14.80
2022-10-24T13:07:58.592Z,14.80
2022-10-24T13:11:18.402Z,14.90
2022-10-24T13:14:19.248Z,15.00
2022-10-24T13:17:28.361Z,15.00
2022-10-24T13:20:33.893Z,14.90
2022-10-24T13:23:18.394Z,14.90
2022-10-24T13:25:46.648Z,14.90
2022-10-24T13:28:40.779Z,14.90
2022-10-24T13:31:48.634Z,14.80
2022-10-24T13:34:22.368Z,14.70
2022-10-24T13:36:58.282Z,14.70
2022-10-24T13:39:33.060Z,14.70
2022-10-24T13:42:21.429Z,14.70
2022-10-24T13:44:52.194Z,14.70
2022-10-24T13:47:29.878Z,14.60
2022-10-24T13:50:18.064Z,14.60
2022-10-24T14:01:01.798Z,14.60
2022-10-24T14:03:30.548Z,14.50
2022-10-24T14:23:36.878Z,14.50
2022-10-24T14:26:19.311Z,14.50
2022-10-24T14:28:59.660Z,14.50
2022-10-24T14:31:34.891Z,14.50
2022-10-24T14:34:06.156Z,14.50
2022-10-24T14:36:38.127Z,14.50
2022-10-24T14:39:06.257Z,14.50
2022-10-24T14:41:40.880Z,14.60
2022-10-24T14:44:10.910Z,14.50
2022-10-24T14:46:40.253Z,14.50
2022-10-24T14:49:52.346Z,14.50
2022-10-24T14:52:37.013Z,14.50
2022-10-24T14:55:22.298Z,14.40
2022-10-24T14:57:51.812Z,14.40
2022-10-24T15:00:24.242Z,14.40
2022-10-24T15:02:55.439Z,14.40
2022-10-24T15:05:52.619Z,14.40
2022-10-24T15:08:26.905Z,14.40
2022-10-24T15:11:25.485Z,14.30
2022-10-24T15:14:06.170Z,14.40
2022-10-24T15:16:39.549Z,14.50
2022-10-24T15:19:14.818Z,16.70
2022-10-24T15:21:44.550Z,16.50
2022-10-24T15:24:22.396Z,15.50
2022-10-24T15:26:49.740Z,15.00
2022-10-24T15:29:23.817Z,14.90
2022-10-24T15:31:52.009Z,14.90
2022-10-24T15:34:22.192Z,14.90
2022-10-24T15:36:51.151Z,14.80
2022-10-24T15:39:24.719Z,14.80
2022-10-24T15:41:52.755Z,14.80
2022-10-24T15:44:27.371Z,14.70
2022-10-24T15:46:55.100Z,14.70
2022-10-24T15:49:22.116Z,14.70
2022-10-24T15:51:50.900Z,15.00
2022-10-24T15:54:20.476Z,17.00
2022-10-24T15:56:47.809Z,17.50
2022-10-24T15:59:15.254Z,16.20
2022-10-24T16:01:51.716Z,15.50
2022-10-24T16:04:19.366Z,15.10
2022-10-24T16:06:46.365Z,14.90
2022-10-24T16:09:26.659Z,14.80
2022-10-24T16:11:54.751Z,14.60
2022-10-24T16:14:22.589Z,14.40
2022-10-24T16:16:49.956Z,14.30
2022-10-24T16:19:16.962Z,14.20
2022-10-24T16:21:44.280Z,14.20
2022-10-24T16:24:12.842Z,14.10
2022-10-24T16:26:40.324Z,14.10
2022-10-24T16:29:07.952Z,14.00
2022-10-24T16:31:35.589Z,14.00
2022-10-24T16:34:03.008Z,14.00
2022-10-24T16:36:30.108Z,13.90
2022-10-24T16:38:57.154Z,14.00
2022-10-24T16:41:25.842Z,13.90
2022-10-24T16:43:57.314Z,13.80
2022-10-24T16:46:25.921Z,13.80
2022-10-24T16:48:53.399Z,13.70
2022-10-24T16:51:23.838Z,13.70
2022-10-24T16:53:50.922Z,13.70
2022-10-24T16:56:18.032Z,13.90
2022-10-24T16:58:45.047Z,13.90
2022-10-24T17:01:15.507Z,14.00
2022-10-24T17:03:44.874Z,14.00
2022-10-24T17:06:12.230Z,14.00
2022-10-24T17:08:39.388Z,13.90
2022-10-24T17:11:20.174Z,13.80
2022-10-24T17:13:54.625Z,13.70
2022-10-24T17:16:21.699Z,13.60
2022-10-24T17:19:05.039Z,13.50
2022-10-24T17:21:36.895Z,13.60
2022-10-24T17:24:04.618Z,13.50
2022-10-24T17:26:32.486Z,13.70
2022-10-24T17:29:02.595Z,13.70
2022-10-24T17:31:29.823Z,13.70
2022-10-24T17:33:57.184Z,13.80
2022-10-24T17:36:28.650Z,13.60
2022-10-24T17:39:17.886Z,13.60
2022-10-24T17:41:45.121Z,13.60
2022-10-24T17:44:16.732Z,13.50
2022-10-24T17:46:44.971Z,13.30
2022-10-24T17:49:17.926Z,13.40
2022-10-24T17:51:49.118Z,13.40
2022-10-24T17:54:16.623Z,13.50
2022-10-24T17:56:43.736Z,13.60
2022-10-24T17:59:10.871Z,13.60
2022-10-24T18:01:38.357Z,13.40
2022-10-24T18:04:05.527Z,13.40
2022-10-24T18:06:32.727Z,13.30
2022-10-24T18:09:00.161Z,13.20
2022-10-24T18:11:27.262Z,13.30
2022-10-24T18:13:54.243Z,13.10
2022-10-24T18:16:21.958Z,13.00
2022-10-24T18:18:49.437Z,13.00
2022-10-24T18:21:24.916Z,12.90
2022-10-24T18:23:53.158Z,12.90
2022-10-24T18:26:22.789Z,12.90
2022-10-24T18:28:51.491Z,12.80
2022-10-24T18:31:23.928Z,12.90
2022-10-24T18:33:51.632Z,12.90
2022-10-24T18:36:24.801Z,12.80
2022-10-24T18:38:54.978Z,12.70
2022-10-24T18:41:49.730Z,12.60
2022-10-24T18:44:47.526Z,12.60
2022-10-24T18:47:23.178Z,12.60
2022-10-24T18:49:53.101Z,12.60
2022-10-24T18:52:39.903Z,12.60
2022-10-24T18:55:22.024Z,12.70
2022-10-24T18:57:50.535Z,12.80
2022-10-24T19:00:23.441Z,12.80
2022-10-24T19:03:33.624Z,12.70
2022-10-24T19:06:22.473Z,12.60
2022-10-24T19:08:49.742Z,12.60
2022-10-24T19:11:17.071Z,12.60
2022-10-24T19:13:45.069Z,12.70
2022-10-24T19:16:18.990Z,12.60
2022-10-24T19:18:54.666Z,12.60
2022-10-24T19:21:23.181Z,12.60
2022-10-24T19:23:51.362Z,12.60
2022-10-24T19:26:18.498Z,12.60
2022-10-24T19:28:45.564Z,12.70
2022-10-24T19:31:14.972Z,12.60
2022-10-24T19:33:42.522Z,12.60
2022-10-24T19:36:11.532Z,12.70
2022-10-24T19:38:40.321Z,12.60
2022-10-24T19:41:08.955Z,12.60
2022-10-24T19:43:36.043Z,12.70
2022-10-24T19:46:19.506Z,12.70
2022-10-24T19:48:49.579Z,12.60
2022-10-24T19:51:17.992Z,12.50
2022-10-24T19:53:46.560Z,12.50
2022-10-24T19:56:18.999Z,12.40
2022-10-24T19:58:48.368Z,12.40
2022-10-24T20:01:18.991Z,12.30
2022-10-24T20:03:47.830Z,12.30
2022-10-24T20:06:15.421Z,12.40
2022-10-24T20:08:43.040Z,12.50
2022-10-24T20:11:10.227Z,12.50
2022-10-24T20:13:37.262Z,12.50
2022-10-24T20:16:06.754Z,12.50
2022-10-24T20:18:35.880Z,12.50
2022-10-24T20:21:08.464Z,12.40
2022-10-24T20:23:36.411Z,12.20
2022-10-24T20:26:26.978Z,12.20
2022-10-24T20:28:55.919Z,12.20
2022-10-24T20:31:34.738Z,12.30
2022-10-24T20:34:07.065Z,12.30
2022-10-24T20:36:40.075Z,12.30
2022-10-24T20:39:08.113Z,12.20
2022-10-24T20:41:35.554Z,12.20
2022-10-24T20:44:03.566Z,12.20
2022-10-24T20:46:31.721Z,12.20
2022-10-24T20:48:58.827Z,12.20
2022-10-24T20:51:25.933Z,12.20
2022-10-24T20:53:53.457Z,12.20
2022-10-24T20:56:23.474Z,12.10
2022-10-24T20:58:51.278Z,12.00
2022-10-24T21:01:26.971Z,11.80
2022-10-24T21:03:55.431Z,11.70
2022-10-24T21:06:31.235Z,11.80
2022-10-24T21:11:32.747Z,11.70
2022-10-24T21:14:07.965Z,11.80
2022-10-24T21:16:35.112Z,11.90
2022-10-24T21:19:02.947Z,12.00
2022-10-24T21:21:30.549Z,11.90
2022-10-24T21:24:02.622Z,11.90
2022-10-24T21:26:33.300Z,12.00
2022-10-24T21:29:14.536Z,12.10
2022-10-24T21:31:51.502Z,12.10
2022-10-24T21:34:19.381Z,12.20
2022-10-24T21:36:46.475Z,12.20
2022-10-24T21:39:15.774Z,12.30
2022-10-24T21:41:43.598Z,12.30
2022-10-24T21:44:10.874Z,12.30
2022-10-24T21:46:38.088Z,12.30
2022-10-24T21:49:05.110Z,12.30
2022-10-24T21:51:35.241Z,12.30
2022-10-24T21:54:17.516Z,12.20
2022-10-24T21:56:44.722Z,12.00
2022-10-24T21:59:15.091Z,11.80
2022-10-24T22:01:43.503Z,11.80
2022-10-24T22:04:13.281Z,11.90
2022-10-24T22:06:40.885Z,11.80
2022-10-24T22:09:11.401Z,11.80
2022-10-24T22:11:38.510Z,11.90
2022-10-24T22:14:06.263Z,12.10
2022-10-24T22:16:33.821Z,12.00
2022-10-24T22:19:05.997Z,11.50
2022-10-24T22:21:42.160Z,11.30
2022-10-24T22:24:12.271Z,11.50
2022-10-24T22:26:40.065Z,11.70
2022-10-24T22:29:08.470Z,11.80
2022-10-24T22:31:36.172Z,11.90
2022-10-24T22:34:03.738Z,12.00
2022-10-24T22:37:20.137Z,12.00
2022-10-24T22:39:47.543Z,12.20
2022-10-24T22:42:19.180Z,12.30
2022-10-24T22:44:48.446Z,12.30
2022-10-24T22:47:46.272Z,12.40
2022-10-24T22:50:55.533Z,12.20
2022-10-24T22:53:25.631Z,12.10
2022-10-24T22:56:23.115Z,12.10
2022-10-24T22:58:50.494Z,12.10
2022-10-24T23:01:41.762Z,12.10
2022-10-24T23:05:13.545Z,12.20
2022-10-24T23:07:50.239Z,12.00
2022-10-24T23:10:20.718Z,11.90
2022-10-24T23:12:48.440Z,11.90
2022-10-24T23:15:17.494Z,11.90
2022-10-24T23:17:45.607Z,12.00
2022-10-24T23:20:37.019Z,12.10
2022-10-24T23:23:15.756Z,12.10
2022-10-24T23:25:56.319Z,12.20
2022-10-24T23:28:45.209Z,12.20
2022-10-24T23:31:12.644Z,12.20
2022-10-24T23:33:40.167Z,12.20
2022-10-24T23:36:15.011Z,12.10
2022-10-24T23:38:42.434Z,12.10
2022-10-24T23:41:11.464Z,12.10
2022-10-24T23:43:38.967Z,12.10
2022-10-24T23:46:36.175Z,12.10
2022-10-24T23:49:29.120Z,12.10
2022-10-24T23:52:26.379Z,12.10
2022-10-24T23:54:53.986Z,12.10
2022-10-24T23:57:22.029Z,12.00
2022-10-24T23:59:49.019Z,12.00
